Time;durP1;ratioP1;P1;durP2;ratioP2;P2;SDS_P1;SDS_P2;PMS_P1;PMS_P2;Temp;Humidity;BMP_temperature;BMP_pressure;BME280_temperature;BME280_humidity;BME280_pressure;Samples;Min_cycle;Max_cycle;Signal;HPM_P1;HPM_P2
2023/01/05 00:02:20;;;;;;;16.58;9.73;;;;;;;10.12;59.74;100183.41;4317546;33;20116;-88
2023/01/05 00:04:45;;;;;;;16.77;9.32;;;;;;;10.21;59.74;100168.53;4317394;33;20175;-89
2023/01/05 00:07:11;;;;;;;16.67;8.95;;;;;;;10.11;59.74;100154.84;4317472;33;20445;-89
2023/01/05 00:09:37;;;;;;;17.75;9.18;;;;;;;10.12;59.74;100140.94;4309236;33;20099;-88
2023/01/05 00:23:02;;;;;;;16.90;8.93;;;;;;;10.45;59.76;100118.50;4322525;33;20147;-88
2023/01/05 00:25:29;;;;;;;15.32;8.48;;;;;;;10.43;59.75;100102.91;4320652;33;20374;-88
2023/01/05 00:27:56;;;;;;;14.50;8.45;;;;;;;10.27;59.74;100105.94;4307618;33;20091;-86
2023/01/05 00:30:27;;;;;;;15.63;8.73;;;;;;;10.18;59.75;100100.94;4309650;33;20063;-88
2023/01/05 00:32:52;;;;;;;15.05;8.95;;;;;;;9.82;59.72;100099.16;4311419;33;20142;-88
2023/01/05 00:35:18;;;;;;;18.35;9.50;;;;;;;9.73;59.72;100111.53;4306590;33;20449;-88
2023/01/05 00:37:44;;;;;;;15.25;8.68;;;;;;;10.16;59.73;100104.41;4322318;33;20171;-88
2023/01/05 00:40:12;;;;;;;13.07;8.02;;;;;;;10.13;59.74;100112.28;4322527;33;20181;-88
2023/01/05 00:42:37;;;;;;;15.63;9.18;;;;;;;10.19;59.75;100134.72;4322578;33;20088;-88
2023/01/05 00:45:07;;;;;;;13.62;8.25;;;;;;;9.96;59.73;100105.81;4319345;33;20104;-88
2023/01/05 00:47:33;;;;;;;16.55;9.23;;;;;;;9.89;59.73;100110.28;4318894;33;20084;-87
2023/01/05 00:49:58;;;;;;;18.15;9.70;;;;;;;9.83;59.72;100106.06;4310773;33;20664;-87
2023/01/05 00:52:24;;;;;;;14.73;8.38;;;;;;;9.97;59.73;100105.75;4313899;33;20108;-88
2023/01/05 00:54:49;;;;;;;17.65;8.70;;;;;;;10.05;59.74;100103.81;4322021;33;20130;-88
2023/01/05 00:57:15;;;;;;;15.93;9.43;;;;;;;10.09;59.74;100100.25;4322113;33;20979;-88
2023/01/05 00:59:40;;;;;;;16.95;9.20;;;;;;;10.07;59.73;100091.63;4318849;33;20099;-87
2023/01/05 01:02:06;;;;;;;17.15;9.18;;;;;;;10.36;59.75;100106.53;4302256;33;20119;-85
2023/01/05 01:04:32;;;;;;;15.95;9.65;;;;;;;10.35;59.75;100109.19;4318794;33;20162;-87
2023/01/05 01:06:57;;;;;;;19.42;9.38;;;;;;;10.17;59.75;100105.25;4302780;33;20157;-86
2023/01/05 01:09:23;;;;;;;15.18;8.63;;;;;;;9.94;59.72;100102.38;4321254;33;20162;-87
2023/01/05 01:11:48;;;;;;;21.42;9.43;;;;;;;10.12;59.74;100097.56;4321364;33;20174;-88
2023/01/05 01:14:13;;;;;;;16.55;9.05;;;;;;;10.25;59.75;100110.31;4321069;33;20454;-87
2023/01/05 01:16:40;;;;;;;18.30;9.10;;;;;;;10.15;59.74;100097.50;4320780;33;20099;-87
2023/01/05 01:19:06;;;;;;;16.37;10.00;;;;;;;10.16;59.75;100117.41;4320674;33;20163;-88
2023/01/05 01:21:32;;;;;;;14.85;8.65;;;;;;;10.07;59.73;100096.00;4321755;33;20186;-88
2023/01/05 01:23:57;;;;;;;14.50;8.77;;;;;;;10.18;59.74;100085.34;4321139;33;20125;-87
2023/01/05 01:26:22;;;;;;;16.35;9.27;;;;;;;10.04;59.74;100080.47;4315806;33;20103;-88
2023/01/05 01:28:48;;;;;;;18.05;9.80;;;;;;;10.36;59.75;100090.09;4311469;33;20095;-87
2023/01/05 01:31:13;;;;;;;16.60;9.73;;;;;;;10.03;59.74;100100.41;4312859;33;20127;-87
2023/01/05 01:33:39;;;;;;;13.70;8.48;;;;;;;10.11;59.74;100090.66;4307999;33;20112;-88
2023/01/05 01:36:05;;;;;;;17.75;9.43;;;;;;;10.07;59.73;100076.03;4315349;33;20437;-87
2023/01/05 01:38:30;;;;;;;16.58;8.98;;;;;;;9.88;59.73;100076.50;4319025;33;20129;-88
2023/01/05 01:40:56;;;;;;;14.82;9.45;;;;;;;10.09;59.74;100082.03;4318857;33;20156;-88
2023/01/05 01:43:42;;;;;;;15.65;8.52;;;;;;;10.05;59.74;100082.16;4323699;33;20151;-87
2023/01/05 01:46:07;;;;;;;17.80;9.10;;;;;;;10.11;59.74;100074.19;4333836;33;20060;-87
2023/01/05 01:48:33;;;;;;;15.80;9.55;;;;;;;9.92;59.73;100072.94;4311382;33;20393;-87
2023/01/05 01:51:00;;;;;;;14.70;9.30;;;;;;;9.88;59.73;100066.97;4321121;33;20139;-85
2023/01/05 01:53:37;;;;;;;15.93;8.98;;;;;;;9.97;59.73;100039.91;4318003;33;20778;-88
2023/01/05 01:56:04;;;;;;;15.93;9.40;;;;;;;9.94;59.73;100027.84;4313765;33;20736;-88
2023/01/05 01:58:30;;;;;;;16.20;9.32;;;;;;;10.15;59.74;100053.28;4320335;33;20163;-86
2023/01/05 02:00:55;;;;;;;16.12;10.00;;;;;;;9.94;59.73;100039.97;4321640;33;20124;-88
2023/01/05 02:03:21;;;;;;;14.38;8.68;;;;;;;9.93;59.72;100041.69;4321510;33;20116;-88
2023/01/05 02:05:46;;;;;;;14.27;8.88;;;;;;;10.04;59.74;100029.28;4313051;33;20121;-88
2023/01/05 02:08:13;;;;;;;15.50;9.60;;;;;;;9.90;59.72;100046.97;4315439;33;20111;-87
2023/01/05 02:10:55;;;;;;;14.70;9.38;;;;;;;10.08;59.73;100036.13;4302332;33;20112;-87
2023/01/05 02:13:29;;;;;;;15.02;9.15;;;;;;;10.10;59.74;100036.09;4332969;33;20481;-87
2023/01/05 02:16:06;;;;;;;15.18;8.48;;;;;;;10.15;59.74;100060.22;4330420;33;20119;-87
2023/01/05 02:18:44;;;;;;;15.68;9.15;;;;;;;9.89;59.73;100049.63;4328284;33;20114;-87
2023/01/05 02:21:23;;;;;;;17.40;10.25;;;;;;;9.95;59.73;100039.94;4320861;33;20578;-88
2023/01/05 02:24:21;;;;;;;19.15;11.02;;;;;;;9.96;59.73;100030.41;4318681;33;20184;-88
2023/01/05 02:27:08;;;;;;;16.98;9.95;;;;;;;9.66;59.71;100018.97;4317514;33;20091;-88
2023/01/05 02:29:52;;;;;;;15.65;9.15;;;;;;;9.71;59.71;100011.94;4334272;33;20112;-89
2023/01/05 02:32:20;;;;;;;17.25;9.70;;;;;;;9.79;59.73;100020.41;4333327;33;20119;-88
2023/01/05 02:35:00;;;;;;;16.12;9.32;;;;;;;9.69;59.71;100013.69;4323649;33;20105;-87
2023/01/05 02:37:38;;;;;;;18.83;10.00;;;;;;;9.69;59.72;100005.91;4327313;33;20087;-87
2023/01/05 02:40:20;;;;;;;17.30;9.77;;;;;;;9.77;59.71;99994.44;4320759;33;20106;-87
2023/01/05 02:42:45;;;;;;;17.52;9.90;;;;;;;9.70;59.71;99997.22;4320955;33;20129;-88
2023/01/05 02:45:11;;;;;;;16.80;9.95;;;;;;;9.61;59.71;99987.91;4313069;33;20100;-88
2023/01/05 02:47:43;;;;;;;15.73;10.05;;;;;;;9.73;59.72;99989.38;4308010;33;20088;-88
2023/01/05 02:50:31;;;;;;;18.83;9.73;;;;;;;9.73;59.72;99997.16;4333502;33;20106;-88
2023/01/05 02:52:59;;;;;;;18.40;9.13;;;;;;;9.70;59.71;99998.09;4301504;33;20134;-88
2023/01/05 02:55:49;;;;;;;14.60;9.10;;;;;;;9.69;59.71;100004.16;4319753;33;20162;-88
2023/01/05 02:58:26;;;;;;;17.45;10.07;;;;;;;9.95;59.73;99971.47;4317089;33;20882;-88
2023/01/05 03:00:57;;;;;;;15.32;9.40;;;;;;;9.83;59.72;99964.84;4309578;33;20150;-88
2023/01/05 03:03:25;;;;;;;19.52;10.05;;;;;;;9.93;59.72;99955.03;4321617;33;20107;-88
2023/01/05 03:05:53;;;;;;;19.98;9.88;;;;;;;9.80;59.73;99957.13;4340371;33;20401;-88
2023/01/05 03:08:22;;;;;;;15.30;9.90;;;;;;;10.11;59.74;99973.62;4309800;33;20154;-88
2023/01/05 03:13:43;;;;;;;22.67;10.45;;;;;;;9.78;59.71;99971.91;4334359;33;20122;-88
2023/01/05 03:16:09;;;;;;;17.73;10.25;;;;;;;9.71;59.71;99963.41;4321988;33;20129;-88
2023/01/05 03:19:34;;;;;;;16.52;9.13;;;;;;;9.73;59.72;99947.78;4321627;33;20491;-87
2023/01/05 03:21:24;;;;;;;18.42;9.40;;;;;;;9.80;59.71;99944.12;4323315;33;20087;-86
2023/01/05 03:37:56;;;;;;;17.92;10.18;;;;;;;10.31;59.74;99951.44;4313411;33;20155;-88
2023/01/05 03:40:24;;;;;;;19.48;9.88;;;;;;;10.12;59.74;99977.91;4321207;33;20110;-88
2023/01/05 03:42:50;;;;;;;18.65;10.98;;;;;;;9.82;59.72;99960.53;4309293;33;20143;-88
2023/01/05 03:45:15;;;;;;;24.17;12.73;;;;;;;9.73;59.72;99917.44;4321344;33;20516;-88
2023/01/05 03:47:40;;;;;;;40.10;22.83;;;;;;;10.08;59.73;99898.28;4321507;33;20426;-88
2023/01/05 03:50:07;;;;;;;22.92;12.02;;;;;;;9.97;59.73;99871.72;4308961;33;20487;-89
2023/01/05 03:52:32;;;;;;;19.05;11.90;;;;;;;10.00;59.73;99869.03;4332666;33;20104;-88
2023/01/05 03:54:57;;;;;;;18.02;12.00;;;;;;;9.79;59.73;99867.88;4307229;33;20459;-86
2023/01/05 03:57:23;;;;;;;28.70;16.35;;;;;;;9.83;59.72;99860.84;4319592;33;20481;-85
2023/01/05 03:59:48;;;;;;;21.33;13.50;;;;;;;9.74;59.72;99858.50;4311006;33;20426;-86
2023/01/05 04:02:14;;;;;;;19.50;11.80;;;;;;;9.64;59.71;99860.47;4304611;33;20176;-87
2023/01/05 04:04:39;;;;;;;20.27;11.50;;;;;;;10.08;59.73;99859.25;4308034;33;20150;-87
2023/01/05 04:07:06;;;;;;;18.85;10.85;;;;;;;10.27;59.75;99861.38;4319335;33;20115;-86
2023/01/05 04:09:32;;;;;;;20.15;10.15;;;;;;;10.05;59.74;99853.31;4308132;33;20711;-86
2023/01/05 04:11:58;;;;;;;17.27;10.82;;;;;;;9.73;59.72;99867.19;4321880;33;20096;-87
2023/01/05 04:14:24;;;;;;;19.65;10.48;;;;;;;9.74;59.72;99871.50;4321571;33;20135;-86
2023/01/05 04:16:49;;;;;;;17.90;10.48;;;;;;;10.06;59.73;99863.66;4321589;33;20176;-86
2023/01/05 04:19:14;;;;;;;21.30;11.63;;;;;;;9.88;59.72;99869.34;4309860;33;20151;-87
2023/01/05 04:21:40;;;;;;;33.30;16.15;;;;;;;9.99;59.73;99867.34;4321305;33;20136;-87
2023/01/05 04:24:06;;;;;;;21.80;11.38;;;;;;;9.84;59.72;99876.41;4309464;33;20112;-86
2023/01/05 04:26:31;;;;;;;19.50;11.52;;;;;;;9.86;59.72;99876.34;4319672;33;20734;-87
2023/01/05 04:28:57;;;;;;;19.58;10.13;;;;;;;9.77;59.71;99877.47;4319532;33;20365;-86
2023/01/05 04:31:22;;;;;;;19.70;11.35;;;;;;;9.83;59.72;99866.88;4318785;33;20749;-87
2023/01/05 04:33:47;;;;;;;18.00;10.68;;;;;;;9.72;59.71;99868.09;4330243;33;20401;-86
2023/01/05 04:36:13;;;;;;;18.08;11.05;;;;;;;10.00;59.73;99878.59;4312241;33;20535;-86
2023/01/05 04:38:38;;;;;;;17.80;11.40;;;;;;;9.86;59.72;99873.75;4312817;33;20095;-86
2023/01/05 04:41:04;;;;;;;19.62;10.13;;;;;;;9.81;59.73;99879.09;4315693;33;20155;-87
2023/01/05 04:43:29;;;;;;;17.20;10.32;;;;;;;9.69;59.72;99852.53;4320089;33;20131;-87
2023/01/05 04:45:55;;;;;;;22.37;10.70;;;;;;;9.92;59.72;99850.19;4320353;33;20104;-87
2023/01/05 04:48:20;;;;;;;18.73;10.13;;;;;;;9.79;59.73;99848.81;4327614;33;20733;-89
2023/01/05 04:50:52;;;;;;;17.05;9.65;;;;;;;9.92;59.72;99855.38;4310637;33;20134;-87
2023/01/05 04:53:17;;;;;;;19.00;9.88;;;;;;;10.19;59.75;99856.37;4312862;33;20815;-88
2023/01/05 04:55:44;;;;;;;25.90;10.77;;;;;;;10.20;59.75;99867.62;4318801;33;20119;-86
2023/01/05 04:58:09;;;;;;;19.58;10.48;;;;;;;10.23;59.74;99862.38;4321638;33;20092;-87
2023/01/05 05:00:36;;;;;;;19.33;10.35;;;;;;;9.76;59.72;99867.97;4321483;33;20170;-87
2023/01/05 05:03:02;;;;;;;21.52;11.00;;;;;;;9.83;59.72;99853.88;4321431;33;20769;-88
2023/01/05 05:05:27;;;;;;;21.62;13.48;;;;;;;9.75;59.72;99853.25;4334237;33;20141;-88
2023/01/05 05:07:53;;;;;;;21.10;11.27;;;;;;;9.74;59.72;99840.31;4309967;33;20343;-87
2023/01/05 05:10:18;;;;;;;16.55;10.10;;;;;;;9.78;59.72;99849.72;4321780;33;20354;-85
2023/01/05 05:12:44;;;;;;;16.80;10.05;;;;;;;10.03;59.73;99834.28;4322271;33;20149;-88
2023/01/05 05:15:10;;;;;;;15.27;8.75;;;;;;;9.93;59.73;99841.47;4310464;33;20103;-87
2023/01/05 05:17:35;;;;;;;15.48;8.95;;;;;;;9.77;59.71;99842.81;4334564;33;20123;-88
2023/01/05 05:20:01;;;;;;;15.63;9.10;;;;;;;9.87;59.73;99846.84;4322360;33;20147;-88
2023/01/05 05:22:27;;;;;;;16.52;8.10;;;;;;;10.00;59.73;99843.03;4324581;33;20163;-88
2023/01/05 05:24:52;;;;;;;14.93;8.55;;;;;;;9.96;59.73;99840.56;4313075;33;20206;-87
2023/01/05 05:27:18;;;;;;;16.65;8.65;;;;;;;10.04;59.74;99817.78;4309064;33;20140;-87
2023/01/05 05:29:43;;;;;;;16.33;8.00;;;;;;;9.99;59.73;99804.94;4322075;33;20133;-86
2023/01/05 05:32:08;;;;;;;16.87;7.62;;;;;;;9.71;59.71;99809.19;4311850;33;20116;-86
2023/01/05 05:34:34;;;;;;;12.15;6.90;;;;;;;9.84;59.72;99806.19;4325623;33;20092;-87
2023/01/05 05:36:59;;;;;;;14.87;7.43;;;;;;;9.74;59.72;99822.09;4308475;33;20111;-88
2023/01/05 05:39:25;;;;;;;13.82;6.80;;;;;;;9.82;59.72;99817.53;4322184;33;20517;-89
2023/01/05 05:41:50;;;;;;;13.45;7.37;;;;;;;9.82;59.72;99815.78;4322152;33;20144;-88
2023/01/05 05:44:16;;;;;;;16.02;7.65;;;;;;;9.74;59.72;99828.16;4327573;33;20168;-87
2023/01/05 05:46:41;;;;;;;12.63;7.70;;;;;;;9.83;59.72;99820.09;4321124;33;20143;-88
2023/01/05 05:49:07;;;;;;;12.80;7.12;;;;;;;9.80;59.71;99814.12;4322054;33;20155;-88
2023/01/05 05:51:33;;;;;;;13.90;7.57;;;;;;;9.83;59.72;99811.44;4319176;33;20159;-88
2023/01/05 05:53:58;;;;;;;11.57;6.85;;;;;;;9.47;59.70;99811.56;4303809;33;20100;-88
2023/01/05 05:56:24;;;;;;;11.55;6.68;;;;;;;9.56;59.70;99800.06;4312484;33;20084;-88
2023/01/05 05:58:49;;;;;;;12.32;7.50;;;;;;;9.60;59.71;99806.88;4320953;33;20103;-86
2023/01/05 06:01:14;;;;;;;14.73;8.25;;;;;;;9.69;59.72;99808.38;4320664;33;20111;-85
2023/01/05 06:03:40;;;;;;;17.75;9.82;;;;;;;9.58;59.71;99798.28;4321125;33;20196;-88
2023/01/05 06:06:06;;;;;;;19.30;8.82;;;;;;;9.54;59.70;99789.72;4322105;33;20151;-87
2023/01/05 06:08:31;;;;;;;18.25;9.13;;;;;;;9.59;59.71;99810.37;4313672;33;20087;-88
2023/01/05 06:10:57;;;;;;;17.95;9.90;;;;;;;9.34;59.70;99827.50;4320229;33;20147;-87
2023/01/05 06:13:22;;;;;;;16.92;9.02;;;;;;;9.18;59.68;99840.87;4332551;33;20128;-87
2023/01/05 06:15:48;;;;;;;19.80;9.68;;;;;;;9.20;59.69;99839.06;4321156;33;20106;-88
2023/01/05 06:18:13;;;;;;;18.52;9.63;;;;;;;9.28;59.70;99836.31;4333953;33;20496;-88
2023/01/05 06:20:39;;;;;;;17.98;9.07;;;;;;;9.15;59.69;99825.34;4323355;33;20095;-87
2023/01/05 06:23:04;;;;;;;18.83;8.93;;;;;;;9.12;59.69;99829.78;4321790;33;20350;-87
2023/01/05 06:25:30;;;;;;;18.70;8.85;;;;;;;9.04;59.68;99821.34;4333709;33;20150;-87
2023/01/05 06:27:55;;;;;;;14.45;8.95;;;;;;;8.80;59.66;99818.44;4321412;33;20088;-87
2023/01/05 06:30:21;;;;;;;20.77;8.88;;;;;;;8.85;59.67;99820.94;4321399;33;20162;-87
2023/01/05 06:32:46;;;;;;;20.50;10.10;;;;;;;8.99;59.67;99802.41;4321424;33;20092;-88
2023/01/05 06:35:12;;;;;;;21.35;10.65;;;;;;;8.89;59.67;99792.25;4320451;33;20149;-87
2023/01/05 06:37:37;;;;;;;18.40;10.73;;;;;;;8.80;59.66;99791.62;4321742;33;20104;-87
2023/01/05 06:40:03;;;;;;;19.67;10.48;;;;;;;8.71;59.66;99790.09;4308980;33;20220;-88
2023/01/05 06:42:28;;;;;;;19.80;10.10;;;;;;;8.74;59.66;99777.03;4309356;33;20091;-87
2023/01/05 06:44:54;;;;;;;21.98;12.00;;;;;;;8.88;59.66;99768.94;4309485;33;20118;-87
2023/01/05 06:47:19;;;;;;;23.70;11.32;;;;;;;8.90;59.68;99775.78;4321293;33;20152;-88
2023/01/05 06:49:44;;;;;;;17.95;10.60;;;;;;;8.95;59.67;99764.44;4309693;33;20162;-87
2023/01/05 06:52:10;;;;;;;24.40;11.00;;;;;;;8.89;59.67;99765.44;4309380;33;20137;-87
2023/01/05 06:54:35;;;;;;;22.27;11.73;;;;;;;9.01;59.68;99756.50;4307064;33;20096;-88
2023/01/05 06:57:01;;;;;;;23.77;11.90;;;;;;;8.89;59.66;99749.87;4314796;33;20112;-87
2023/01/05 06:59:26;;;;;;;25.20;11.65;;;;;;;8.96;59.67;99746.22;4333096;33;20145;-87
2023/01/05 07:01:52;;;;;;;20.40;10.25;;;;;;;8.84;59.67;99760.38;4321312;33;20107;-87
2023/01/05 07:04:17;;;;;;;22.85;11.48;;;;;;;9.28;59.70;99763.59;4311601;33;20083;-87
2023/01/05 07:06:42;;;;;;;26.70;12.30;;;;;;;9.14;59.69;99760.47;4315695;33;20088;-88
2023/01/05 07:09:08;;;;;;;24.48;10.60;;;;;;;8.72;59.66;99752.88;4308303;33;20241;-87
2023/01/05 07:11:33;;;;;;;28.90;13.10;;;;;;;8.74;59.67;99745.91;4308126;33;20107;-87
2023/01/05 07:13:59;;;;;;;35.22;15.02;;;;;;;8.95;59.67;99743.66;4307882;33;20100;-88
2023/01/05 07:16:24;;;;;;;35.58;15.85;;;;;;;9.05;59.68;99737.38;4308272;33;20092;-87
2023/01/05 07:18:49;;;;;;;26.70;14.75;;;;;;;8.90;59.68;99738.59;4319939;33;20189;-89
2023/01/05 07:21:15;;;;;;;31.55;13.65;;;;;;;8.76;59.67;99727.72;4308019;33;20110;-87
2023/01/05 07:23:40;;;;;;;26.85;13.45;;;;;;;8.68;59.66;99738.28;4308431;33;20151;-88
2023/01/05 07:26:06;;;;;;;21.80;13.18;;;;;;;9.01;59.67;99739.19;4308012;33;20084;-87
2023/01/05 07:28:32;;;;;;;27.25;13.55;;;;;;;8.90;59.68;99746.38;4319936;33;20119;-87
2023/01/05 07:30:58;;;;;;;24.92;13.73;;;;;;;9.02;59.67;99755.63;4308114;33;20115;-88
2023/01/05 07:33:26;;;;;;;23.08;13.60;;;;;;;9.00;59.67;99767.78;4307706;33;20131;-88
2023/01/05 07:35:52;;;;;;;30.50;14.43;;;;;;;9.01;59.68;99759.09;4320455;33;20164;-87
2023/01/05 07:38:17;;;;;;;27.92;14.07;;;;;;;9.06;59.68;99768.47;4320024;33;20144;-88
2023/01/05 07:40:43;;;;;;;25.98;14.85;;;;;;;9.13;59.68;99749.25;4320490;33;20396;-88
2023/01/05 07:43:08;;;;;;;23.77;12.82;;;;;;;9.03;59.68;99734.81;4323654;33;20104;-87
2023/01/05 07:45:33;;;;;;;23.15;12.65;;;;;;;9.17;59.69;99745.66;4319449;33;20147;-88
2023/01/05 07:47:59;;;;;;;22.75;12.37;;;;;;;8.97;59.68;99740.13;4332479;33;20119;-88
2023/01/05 07:50:25;;;;;;;23.15;11.75;;;;;;;9.01;59.67;99734.00;4307967;33;20149;-88
2023/01/05 07:52:50;;;;;;;23.92;12.00;;;;;;;9.14;59.68;99719.78;4307582;33;20112;-88
2023/01/05 07:55:15;;;;;;;21.77;10.95;;;;;;;9.31;59.69;99732.31;4308057;33;20092;-88
2023/01/05 07:57:41;;;;;;;20.52;11.43;;;;;;;9.36;59.70;99732.19;4307543;33;20135;-88
2023/01/05 08:00:07;;;;;;;31.10;15.48;;;;;;;9.33;59.69;99729.69;4308003;33;20119;-87
2023/01/05 08:02:32;;;;;;;28.73;16.20;;;;;;;9.70;59.71;99724.28;4307659;33;20433;-88
2023/01/05 08:04:58;;;;;;;27.17;15.73;;;;;;;9.82;59.72;99735.19;4307725;33;20104;-88
2023/01/05 08:07:24;;;;;;;30.65;16.70;;;;;;;9.57;59.71;99742.00;4307884;33;20139;-88
2023/01/05 08:13:58;;;;;;;27.90;14.77;;;;;;;9.30;59.69;99728.03;4322212;33;20155;-87
2023/01/05 08:15:18;;;;;;;43.25;17.10;;;;;;;9.22;59.69;99735.16;4322199;33;20083;-87
2023/01/05 08:17:44;;;;;;;33.72;15.85;;;;;;;9.32;59.69;99726.25;4307302;33;20263;-88
2023/01/05 08:20:09;;;;;;;37.17;15.75;;;;;;;9.42;59.70;99709.50;4319834;33;20112;-87
2023/01/05 08:22:35;;;;;;;29.20;14.35;;;;;;;9.81;59.73;99706.66;4307604;33;20091;-88
2023/01/05 08:25:01;;;;;;;32.30;14.95;;;;;;;9.78;59.72;99697.19;4307523;33;20146;-88
2023/01/05 08:27:26;;;;;;;28.98;14.87;;;;;;;9.80;59.73;99704.94;4307304;33;20141;-88
2023/01/05 08:29:52;;;;;;;35.70;14.10;;;;;;;9.83;59.72;99697.91;4331311;33;20119;-88
2023/01/05 08:32:17;;;;;;;24.23;14.05;;;;;;;9.80;59.73;99704.94;4319116;33;20112;-87
2023/01/05 08:34:43;;;;;;;28.85;13.45;;;;;;;9.93;59.73;99706.28;4324385;33;20151;-87
2023/01/05 08:37:08;;;;;;;33.63;14.60;;;;;;;10.06;59.74;99697.22;4318966;33;20115;-88
2023/01/05 08:39:34;;;;;;;28.52;14.45;;;;;;;10.27;59.75;99698.34;4324491;33;20107;-88
2023/01/05 08:42:00;;;;;;;27.70;14.27;;;;;;;10.42;59.76;99700.47;4307001;33;20142;-87
2023/01/05 08:44:25;;;;;;;33.67;16.12;;;;;;;10.31;59.75;99699.94;4307050;33;20386;-87
2023/01/05 08:46:51;;;;;;;26.42;14.25;;;;;;;10.07;59.73;99705.88;4306799;33;20172;-87
2023/01/05 08:49:16;;;;;;;49.47;22.90;;;;;;;10.21;59.74;99689.88;4306920;33;20099;-87
2023/01/05 08:51:42;;;;;;;42.45;19.87;;;;;;;10.20;59.74;99703.75;4318654;33;20456;-87
2023/01/05 08:54:07;;;;;;;29.27;15.43;;;;;;;10.34;59.75;99715.44;4306523;33;20117;-87
2023/01/05 08:56:33;;;;;;;31.62;16.17;;;;;;;10.59;59.76;99705.09;4307008;33;20187;-87
2023/01/05 08:58:58;;;;;;;15.00;8.20;;;;;;;10.59;59.76;99688.63;4321170;33;20167;-87
2023/01/05 09:01:24;;;;;;;12.48;6.50;;;;;;;10.58;59.77;99681.72;4334349;33;20105;-87
2023/01/05 09:03:49;;;;;;;11.45;6.30;;;;;;;10.76;59.77;99700.19;4320879;33;20452;-87
2023/01/05 09:06:15;;;;;;;14.38;6.40;;;;;;;10.92;59.77;99704.91;4320714;33;20133;-87
2023/01/05 09:08:41;;;;;;;11.27;6.40;;;;;;;11.12;59.79;99696.37;4320700;33;20359;-87
2023/01/05 09:11:13;;;;;;;11.23;6.50;;;;;;;11.28;59.80;99702.75;4320878;33;20118;-88
2023/01/05 09:13:39;;;;;;;13.40;6.97;;;;;;;11.21;59.80;99719.50;4321007;33;20114;-88
2023/01/05 09:16:10;;;;;;;10.77;5.60;;;;;;;11.16;59.80;99719.69;4309185;33;20139;-87
2023/01/05 09:18:36;;;;;;;10.82;6.15;;;;;;;11.28;59.80;99715.78;4308900;33;20561;-87
2023/01/05 09:21:02;;;;;;;9.38;6.00;;;;;;;11.22;59.79;99718.59;4308895;33;20100;-88
2023/01/05 09:23:27;;;;;;;12.70;6.37;;;;;;;11.15;59.79;99714.53;4333507;33;20122;-87
2023/01/05 09:25:53;;;;;;;11.43;6.75;;;;;;;11.12;59.79;99722.41;4321256;33;20130;-88
2023/01/05 09:28:18;;;;;;;11.02;6.03;;;;;;;11.12;59.79;99712.00;4321265;33;20457;-87
2023/01/05 09:30:44;;;;;;;13.48;5.40;;;;;;;11.04;59.78;99715.72;4320798;33;20107;-87
2023/01/05 09:33:09;;;;;;;12.90;6.22;;;;;;;11.11;59.79;99705.94;4320551;33;20112;-88
2023/01/05 09:35:35;;;;;;;10.77;6.45;;;;;;;11.23;59.80;99692.50;4320813;33;20154;-87
2023/01/05 09:38:00;;;;;;;8.80;5.18;;;;;;;11.23;59.80;99678.63;4320494;33;20500;-87
2023/01/05 09:40:26;;;;;;;11.45;5.53;;;;;;;11.41;59.81;99677.09;4332631;33;20114;-87
2023/01/05 09:42:51;;;;;;;9.82;5.55;;;;;;;11.49;59.81;99675.91;4320304;33;20104;-87
2023/01/05 09:45:25;;;;;;;9.38;5.40;;;;;;;11.60;59.81;99671.16;4308319;33;20167;-87
2023/01/05 09:47:50;;;;;;;10.55;5.30;;;;;;;11.52;59.81;99669.72;4308345;33;20177;-86
2023/01/05 09:50:18;;;;;;;8.90;5.43;;;;;;;11.62;59.82;99664.13;4332305;33;20390;-87
2023/01/05 09:52:44;;;;;;;8.68;4.60;;;;;;;11.76;59.83;99657.53;4308151;33;20154;-86
2023/01/05 09:55:15;;;;;;;8.60;4.45;;;;;;;11.83;59.84;99664.22;4332276;33;20440;-87
2023/01/05 09:57:41;;;;;;;7.80;5.12;;;;;;;11.75;59.82;99661.03;4319800;33;20099;-88
2023/01/05 10:00:07;;;;;;;7.82;4.78;;;;;;;11.73;59.83;99652.44;4332848;33;20110;-87
2023/01/05 10:02:33;;;;;;;9.48;5.47;;;;;;;11.91;59.84;99647.41;4320755;33;20130;-87
2023/01/05 10:05:00;;;;;;;15.00;6.80;;;;;;;11.99;59.84;99634.91;4320455;33;20090;-87
2023/01/05 10:07:57;;;;;;;10.63;6.53;;;;;;;12.11;59.84;99637.94;4308034;33;20115;-87
2023/01/05 10:10:44;;;;;;;14.55;7.10;;;;;;;12.05;59.84;99636.41;4329398;33;20115;-87
2023/01/05 10:13:20;;;;;;;11.10;6.62;;;;;;;11.96;59.83;99616.75;4325076;33;20087;-87
2023/01/05 10:15:48;;;;;;;13.43;7.62;;;;;;;12.16;59.85;99620.34;4308834;33;20107;-87
2023/01/05 10:18:14;;;;;;;9.00;5.10;;;;;;;12.08;59.85;99619.81;4308639;33;20397;-87
2023/01/05 10:20:58;;;;;;;8.00;4.37;;;;;;;12.04;59.84;99603.41;4308082;33;20524;-87
2023/01/05 10:23:27;;;;;;;11.32;4.20;;;;;;;12.16;59.85;99608.12;4320289;33;20163;-88
2023/01/05 10:26:01;;;;;;;7.72;3.67;;;;;;;12.34;59.85;99614.38;4320029;33;20111;-87
2023/01/05 10:29:06;;;;;;;3.75;2.12;;;;;;;12.49;59.86;99629.38;4308801;33;20144;-87
2023/01/05 10:31:47;;;;;;;3.12;2.00;;;;;;;12.50;59.87;99632.84;4275826;33;20312;-87
2023/01/05 10:34:15;;;;;;;4.05;1.60;;;;;;;12.63;59.87;99636.66;4294070;33;20119;-88
2023/01/05 10:37:15;;;;;;;2.33;1.30;;;;;;;12.59;59.87;99629.84;4332501;33;20103;-88
2023/01/05 10:39:45;;;;;;;3.10;1.92;;;;;;;12.48;59.86;99621.59;4320724;33;20226;-87
2023/01/05 10:42:24;;;;;;;2.42;1.52;;;;;;;12.44;59.87;99627.87;4320792;33;20227;-88
2023/01/05 10:45:02;;;;;;;4.63;2.03;;;;;;;12.50;59.87;99622.38;4308729;33;20107;-88
2023/01/05 10:47:28;;;;;;;4.22;1.90;;;;;;;12.63;59.88;99620.97;4320362;33;20212;-87
2023/01/05 10:49:54;;;;;;;8.23;2.25;;;;;;;12.74;59.89;99621.34;4308252;33;20103;-87
2023/01/05 10:52:21;;;;;;;8.00;2.20;;;;;;;12.80;59.88;99618.50;4320196;33;20133;-87
2023/01/05 10:55:00;;;;;;;4.12;2.30;;;;;;;12.90;59.89;99632.84;4317560;33;20122;-88
2023/01/05 10:57:31;;;;;;;6.97;3.15;;;;;;;12.81;59.88;99628.03;4319968;33;20179;-87
2023/01/05 10:59:57;;;;;;;5.93;3.37;;;;;;;12.82;59.89;99629.72;4333685;33;20122;-87
2023/01/05 11:02:24;;;;;;;3.62;2.12;;;;;;;12.78;59.88;99624.72;4332389;33;20587;-87
2023/01/05 11:04:49;;;;;;;3.08;1.80;;;;;;;12.63;59.88;99618.38;4308378;33;20100;-88
2023/01/05 11:07:15;;;;;;;5.93;2.03;;;;;;;12.59;59.87;99648.97;4320557;33;20154;-89
2023/01/05 11:09:40;;;;;;;6.28;3.60;;;;;;;12.57;59.88;99642.97;4320690;33;20419;-88
2023/01/05 11:12:16;;;;;;;10.40;4.65;;;;;;;12.47;59.86;99662.53;4320418;33;20100;-88
2023/01/05 11:14:42;;;;;;;11.48;5.25;;;;;;;12.20;59.84;99656.69;4308405;33;20103;-88
2023/01/05 11:17:12;;;;;;;9.35;4.53;;;;;;;12.18;59.85;99657.66;4308255;33;20103;-88
2023/01/05 11:19:43;;;;;;;8.98;4.62;;;;;;;12.21;59.86;99665.34;4307347;33;20134;-88
2023/01/05 11:22:36;;;;;;;11.43;5.00;;;;;;;12.31;59.86;99671.06;4308230;33;20377;-88
2023/01/05 11:25:21;;;;;;;8.63;4.90;;;;;;;12.25;59.85;99683.44;4303697;33;20138;-88
2023/01/05 11:28:06;;;;;;;15.55;5.55;;;;;;;12.13;59.84;99678.72;4320981;33;20100;-88
2023/01/05 11:30:32;;;;;;;12.43;5.70;;;;;;;12.11;59.84;99669.25;4332597;33;20147;-88
2023/01/05 11:32:58;;;;;;;8.48;4.95;;;;;;;12.09;59.85;99697.16;4320135;33;20119;-88
2023/01/05 11:35:35;;;;;;;10.63;4.57;;;;;;;12.03;59.84;99695.63;4320216;33;20460;-87
2023/01/05 11:38:01;;;;;;;8.63;4.65;;;;;;;11.60;59.83;99717.25;4308054;33;20099;-87
2023/01/05 11:40:28;;;;;;;9.45;4.28;;;;;;;11.60;59.83;99725.91;4320011;33;20111;-88
2023/01/05 11:42:53;;;;;;;7.72;3.50;;;;;;;11.59;59.81;99712.91;4308502;33;20088;-87
2023/01/05 11:45:20;;;;;;;8.23;4.60;;;;;;;11.60;59.81;99718.09;4320172;33;20087;-88
2023/01/05 11:47:50;;;;;;;10.43;3.28;;;;;;;11.74;59.82;99717.56;4320002;33;20103;-88
2023/01/05 11:50:35;;;;;;;6.43;3.62;;;;;;;11.74;59.82;99714.97;4310956;33;20543;-87
2023/01/05 11:53:01;;;;;;;7.05;3.20;;;;;;;11.83;59.84;99717.28;4321716;33;20107;-87
2023/01/05 11:55:39;;;;;;;9.15;3.25;;;;;;;11.61;59.82;99718.94;4319613;33;20225;-88
2023/01/05 11:58:16;;;;;;;9.80;3.90;;;;;;;11.87;59.83;99708.41;4333059;33;20150;-86
2023/01/05 12:01:03;;;;;;;8.10;4.37;;;;;;;11.68;59.83;99689.97;4319614;33;20119;-87
2023/01/05 12:04:10;;;;;;;5.25;2.80;;;;;;;11.79;59.83;99688.72;4323634;33;20084;-87